createdAt,value
2018-07-31T00:01:32.284Z,99978.39
2018-07-31T00:04:03.657Z,99977.19
2018-07-31T00:06:34.580Z,99971.56
2018-07-31T00:09:08.289Z,99969.17
2018-07-31T00:11:39.357Z,99974.25
2018-07-31T00:14:10.438Z,99971.86
2018-07-31T00:16:41.519Z,99965.02
2018-07-31T00:19:12.512Z,99966.37
2018-07-31T00:21:43.513Z,99959.56
2018-07-31T00:24:14.469Z,99962.06
2018-07-31T00:26:45.506Z,99962.50
2018-07-31T00:29:16.485Z,99960.78
2018-07-31T00:31:47.537Z,99958.48
2018-07-31T00:34:18.501Z,99962.48
2018-07-31T00:36:49.472Z,99969.59
2018-07-31T00:39:20.504Z,99972.63
2018-07-31T00:41:51.512Z,99968.10
2018-07-31T00:44:22.901Z,99977.20
2018-07-31T00:46:54.296Z,99976.53
2018-07-31T00:49:25.365Z,99972.06
2018-07-31T00:51:56.381Z,99966.89
2018-07-31T00:54:27.448Z,99963.58
2018-07-31T00:56:58.496Z,99969.16
2018-07-31T00:59:29.481Z,99967.56
2018-07-31T01:02:00.489Z,99964.97
2018-07-31T01:04:31.493Z,99974.30
2018-07-31T01:07:02.536Z,99973.24
2018-07-31T01:09:33.477Z,99970.77
2018-07-31T01:12:04.469Z,99973.70
2018-07-31T01:14:35.481Z,99978.45
2018-07-31T01:17:06.496Z,99974.60
2018-07-31T01:19:37.469Z,99961.08
2018-07-31T01:22:08.509Z,99965.44
2018-07-31T01:24:39.522Z,99970.16
2018-07-31T01:27:10.526Z,99960.16
2018-07-31T01:29:41.515Z,99966.11
2018-07-31T01:32:12.533Z,99964.66
2018-07-31T01:34:43.521Z,99966.98
2018-07-31T01:37:14.496Z,99964.53
2018-07-31T01:39:45.453Z,99972.28
2018-07-31T01:42:16.509Z,99965.98
2018-07-31T01:44:47.421Z,99965.79
2018-07-31T01:47:18.497Z,99958.52
2018-07-31T01:49:49.536Z,99960.67
2018-07-31T01:52:20.496Z,99969.64
2018-07-31T01:54:51.592Z,99968.23
2018-07-31T01:57:22.500Z,99967.23
2018-07-31T01:59:53.546Z,99967.36
2018-07-31T02:02:24.508Z,99962.70
2018-07-31T02:04:55.509Z,99963.87
2018-07-31T02:07:26.549Z,99968.63
2018-07-31T02:09:57.529Z,99969.02
2018-07-31T02:12:28.539Z,99971.22
2018-07-31T02:14:59.522Z,99964.03
2018-07-31T02:17:30.526Z,99971.34
2018-07-31T02:20:01.526Z,99965.67
2018-07-31T02:22:32.525Z,99960.38
2018-07-31T02:25:03.521Z,99970.00
2018-07-31T02:27:34.525Z,99957.13
2018-07-31T02:30:08.638Z,99964.31
2018-07-31T02:32:40.025Z,99956.50
2018-07-31T02:35:11.295Z,99960.39
2018-07-31T02:37:42.399Z,99964.94
2018-07-31T02:40:13.568Z,99964.60
2018-07-31T02:42:44.493Z,99961.23
2018-07-31T02:45:16.021Z,99962.97
2018-07-31T02:47:47.221Z,99955.32
2018-07-31T02:50:18.407Z,99954.59
2018-07-31T02:52:49.524Z,99964.82
2018-07-31T02:55:20.501Z,99957.80
2018-07-31T02:57:51.562Z,99958.47
2018-07-31T03:00:22.484Z,99960.11
2018-07-31T03:02:53.481Z,99959.42
2018-07-31T03:05:24.514Z,99959.32
2018-07-31T03:07:55.502Z,99957.36
2018-07-31T03:10:26.477Z,99959.98
2018-07-31T03:12:57.498Z,99964.31
2018-07-31T03:15:28.530Z,99962.42
2018-07-31T03:18:01.025Z,99963.25
2018-07-31T03:20:32.288Z,99956.63
2018-07-31T03:23:03.414Z,99962.18
2018-07-31T03:25:34.516Z,99966.45
2018-07-31T03:28:05.541Z,99968.38
2018-07-31T03:30:36.470Z,99967.53
2018-07-31T03:33:07.544Z,99964.86
2018-07-31T03:35:38.466Z,99967.02
2018-07-31T03:38:09.529Z,99965.09
2018-07-31T03:40:40.493Z,99965.75
2018-07-31T03:43:11.553Z,99962.44
2018-07-31T03:45:42.597Z,99962.73
2018-07-31T03:48:13.576Z,99969.74
2018-07-31T03:50:44.500Z,99961.23
2018-07-31T03:53:15.489Z,99963.64
2018-07-31T03:55:46.582Z,99963.11
2018-07-31T03:58:18.202Z,99971.11
2018-07-31T04:00:49.391Z,99971.43
2018-07-31T04:03:20.522Z,99973.28
2018-07-31T04:05:51.522Z,99978.57
2018-07-31T04:08:22.509Z,99976.52
2018-07-31T04:10:53.546Z,99977.53
2018-07-31T04:13:24.534Z,99976.50
2018-07-31T04:15:56.322Z,99976.00
2018-07-31T04:18:27.440Z,99982.91
2018-07-31T04:20:58.570Z,99978.46
2018-07-31T04:23:29.611Z,99984.68
2018-07-31T04:26:00.570Z,99978.78
2018-07-31T04:28:31.574Z,99979.39
2018-07-31T04:31:02.575Z,99985.93
2018-07-31T04:33:33.541Z,99992.84
2018-07-31T04:36:04.752Z,99989.85
2018-07-31T04:41:06.428Z,99991.09
2018-07-31T04:43:37.550Z,99992.02
2018-07-31T04:46:08.558Z,99994.30
2018-07-31T04:48:39.558Z,99994.00
2018-07-31T04:51:10.507Z,99991.73
2018-07-31T04:53:41.502Z,99989.55
2018-07-31T04:56:12.467Z,99993.47
2018-07-31T04:58:43.506Z,99988.27
2018-07-31T05:01:14.529Z,99987.64
2018-07-31T05:03:45.485Z,99988.78
2018-07-31T05:06:16.713Z,99989.74
2018-07-31T05:08:47.558Z,99996.86
2018-07-31T05:11:18.498Z,99995.95
2018-07-31T05:13:49.527Z,100002.77
2018-07-31T05:16:20.542Z,99995.89
2018-07-31T05:18:51.542Z,100000.18
2018-07-31T05:21:22.506Z,100004.98
2018-07-31T05:23:53.531Z,100009.26
2018-07-31T05:26:24.497Z,100006.63
2018-07-31T05:28:55.509Z,100008.95
2018-07-31T05:31:26.487Z,100011.53
2018-07-31T05:33:57.524Z,100007.09
2018-07-31T05:36:28.792Z,100014.41
2018-07-31T05:39:01.241Z,100009.45
2018-07-31T05:41:32.349Z,100008.85
2018-07-31T05:44:03.377Z,100010.13
2018-07-31T05:46:34.415Z,100010.80
2018-07-31T05:49:06.433Z,100015.40
2018-07-31T05:51:37.996Z,100014.41
2018-07-31T05:54:09.317Z,100013.61
2018-07-31T05:56:40.401Z,100008.49
2018-07-31T05:59:11.504Z,100014.38
2018-07-31T06:01:42.482Z,100012.03
2018-07-31T06:04:13.507Z,100012.11
2018-07-31T06:06:44.505Z,100009.01
2018-07-31T06:09:15.485Z,100007.17
2018-07-31T06:11:46.511Z,100009.27
2018-07-31T06:14:17.501Z,100018.62
2018-07-31T06:16:48.631Z,100011.73
2018-07-31T06:19:19.508Z,100015.22
2018-07-31T06:21:50.753Z,100016.37
2018-07-31T06:24:21.593Z,100018.55
2018-07-31T06:26:52.479Z,100018.83
2018-07-31T06:29:23.502Z,100033.56
2018-07-31T06:31:54.521Z,100025.38
2018-07-31T06:34:25.489Z,100028.20
2018-07-31T06:36:56.486Z,100028.73
2018-07-31T06:39:27.492Z,100031.08
2018-07-31T06:41:58.511Z,100027.95
2018-07-31T06:44:29.499Z,100027.58
2018-07-31T06:47:00.480Z,100028.84
2018-07-31T06:49:31.510Z,100028.80
2018-07-31T06:52:02.500Z,100035.75
2018-07-31T06:54:33.518Z,100038.38
2018-07-31T06:57:04.488Z,100041.63
2018-07-31T06:59:35.534Z,100041.30
2018-07-31T07:02:06.595Z,100039.84
2018-07-31T07:04:37.509Z,100047.56
2018-07-31T07:07:08.580Z,100053.09
2018-07-31T07:09:39.522Z,100050.89
2018-07-31T07:12:10.501Z,100045.53
2018-07-31T07:14:41.505Z,100043.98
2018-07-31T07:17:12.557Z,100048.55
2018-07-31T07:19:43.526Z,100044.86
2018-07-31T07:22:14.486Z,100050.28
2018-07-31T07:24:45.498Z,100051.44
2018-07-31T07:27:16.516Z,100049.80
2018-07-31T07:29:48.400Z,100045.14
2018-07-31T07:32:19.525Z,100051.61
2018-07-31T07:34:50.518Z,100037.77
2018-07-31T07:37:21.488Z,100048.84
2018-07-31T07:39:52.538Z,100051.16
2018-07-31T07:42:23.459Z,100057.59
2018-07-31T07:44:54.570Z,100057.10
2018-07-31T07:47:25.486Z,100049.22
2018-07-31T07:49:56.485Z,100054.10
2018-07-31T07:53:03.522Z,100055.16
2018-07-31T07:55:34.547Z,100057.71
2018-07-31T07:58:05.620Z,100052.54
2018-07-31T08:00:36.627Z,100057.18
2018-07-31T08:03:08.510Z,100052.48
2018-07-31T08:05:40.605Z,100052.16
2018-07-31T08:08:13.388Z,100053.80
2018-07-31T08:10:45.925Z,100053.82
2018-07-31T08:13:18.573Z,100055.08
2018-07-31T08:15:49.731Z,100053.62
2018-07-31T08:18:20.731Z,100052.15
2018-07-31T08:20:52.595Z,100056.41
2018-07-31T08:23:24.351Z,100050.95
2018-07-31T08:25:55.707Z,100057.30
2018-07-31T08:28:27.031Z,100057.75
2018-07-31T08:30:58.434Z,100055.64
2018-07-31T08:33:30.212Z,100057.09
2018-07-31T08:36:01.448Z,100058.28
2018-07-31T08:38:32.626Z,100063.78
2018-07-31T08:41:03.686Z,100055.53
2018-07-31T08:43:35.298Z,100059.20
2018-07-31T08:46:06.669Z,100063.66
2018-07-31T08:48:37.752Z,100062.71
2018-07-31T08:51:09.547Z,100059.92
2018-07-31T08:53:41.463Z,100056.68
2018-07-31T08:56:12.618Z,100053.95
2018-07-31T08:58:43.660Z,100048.75
2018-07-31T09:01:15.018Z,100049.17
2018-07-31T09:03:46.453Z,100043.53
2018-07-31T09:06:22.402Z,100047.82
2018-07-31T09:08:53.664Z,100047.32
2018-07-31T09:11:25.358Z,100054.14
2018-07-31T09:13:56.604Z,100056.16
2018-07-31T09:16:27.645Z,100060.44
2018-07-31T09:18:59.955Z,100057.92
2018-07-31T09:21:31.409Z,100053.63
2018-07-31T09:24:02.578Z,100057.23
2018-07-31T09:26:33.785Z,100054.75
2018-07-31T09:29:04.395Z,100054.94
2018-07-31T09:31:35.630Z,100055.30
2018-07-31T09:34:07.201Z,100050.34
2018-07-31T09:36:38.529Z,100057.47
2018-07-31T09:39:12.469Z,100051.56
2018-07-31T09:41:43.670Z,100050.91
2018-07-31T09:44:14.626Z,100048.55
2018-07-31T09:46:46.419Z,100045.50
2018-07-31T09:49:17.568Z,100045.62
2018-07-31T09:51:50.404Z,100043.39
2018-07-31T09:54:21.581Z,100039.71
2018-07-31T09:57:42.514Z,100045.29
2018-07-31T10:00:16.511Z,100037.39
2018-07-31T10:02:48.693Z,100038.50
2018-07-31T10:05:20.483Z,100030.59
2018-07-31T10:07:51.821Z,100034.92
2018-07-31T10:10:22.320Z,100033.95
2018-07-31T10:12:55.325Z,100032.86
2018-07-31T10:15:26.411Z,100031.16
2018-07-31T10:17:57.651Z,100031.58
2018-07-31T10:20:28.647Z,100032.33
2018-07-31T10:22:59.882Z,100031.85
2018-07-31T10:25:32.453Z,100024.43
2018-07-31T10:28:03.595Z,100030.92
2018-07-31T10:30:34.710Z,100021.37
2018-07-31T10:33:05.699Z,100024.13
2018-07-31T10:35:36.784Z,100021.63
2018-07-31T10:38:08.265Z,100023.10
2018-07-31T10:40:39.592Z,100024.06
2018-07-31T10:43:10.829Z,100022.91
2018-07-31T10:45:41.398Z,100019.25
2018-07-31T10:48:12.614Z,100024.73
2018-07-31T10:50:44.243Z,100023.44
2018-07-31T10:53:15.428Z,100021.39
2018-07-31T10:55:46.667Z,100025.66
2018-07-31T10:58:18.622Z,100023.13
2018-07-31T11:00:50.602Z,100017.19
2018-07-31T11:03:22.376Z,100020.13
2018-07-31T11:05:53.801Z,100017.75
2018-07-31T11:08:24.531Z,100016.64
2018-07-31T11:10:55.722Z,100014.31
2018-07-31T11:13:27.205Z,100011.65
2018-07-31T11:15:58.426Z,100015.87
2018-07-31T11:18:29.735Z,100008.55
2018-07-31T11:21:01.461Z,100008.62
2018-07-31T11:23:32.544Z,100007.55
2018-07-31T11:26:03.649Z,100005.75
2018-07-31T11:28:34.636Z,100003.64
2018-07-31T11:31:07.323Z,100004.20
2018-07-31T11:33:38.771Z,100010.10
2018-07-31T11:36:10.659Z,100009.77
2018-07-31T11:38:42.237Z,100010.23
2018-07-31T11:41:13.697Z,100011.10
2018-07-31T11:43:46.185Z,100004.61
2018-07-31T11:46:18.282Z,100005.95
2018-07-31T11:48:50.342Z,100005.22
2018-07-31T11:51:22.647Z,100000.06
2018-07-31T11:53:55.416Z,100001.36
2018-07-31T11:56:26.596Z,100001.38
2018-07-31T11:58:57.631Z,99994.88
2018-07-31T12:01:28.618Z,99984.42
2018-07-31T12:03:59.698Z,99993.33
2018-07-31T12:06:31.536Z,99989.83
2018-07-31T12:09:02.721Z,99985.75
2018-07-31T12:11:34.035Z,99980.27
2018-07-31T12:14:05.826Z,99983.38
2018-07-31T12:16:37.299Z,99982.84
2018-07-31T12:19:13.366Z,99978.95
2018-07-31T12:21:44.613Z,99981.66
2018-07-31T12:24:15.753Z,99985.94
2018-07-31T12:26:47.527Z,99979.95
2018-07-31T12:29:18.703Z,99976.71
2018-07-31T12:31:50.039Z,99986.80
2018-07-31T12:34:21.573Z,99980.19
2018-07-31T12:36:53.344Z,99985.25
2018-07-31T12:39:24.781Z,99982.12
2018-07-31T12:41:55.418Z,99983.03
2018-07-31T12:44:26.737Z,99972.16
2018-07-31T12:46:58.029Z,99985.02
2018-07-31T12:49:29.499Z,99985.20
2018-07-31T12:52:00.744Z,99978.91
2018-07-31T12:54:33.045Z,99980.44
2018-07-31T12:57:04.431Z,99982.47
2018-07-31T12:59:35.640Z,99982.63
2018-07-31T13:02:06.674Z,99980.66
2018-07-31T13:04:37.807Z,99980.05
2018-07-31T13:07:08.289Z,99972.31
2018-07-31T13:09:39.481Z,99976.77
2018-07-31T13:12:11.237Z,99976.91
2018-07-31T13:14:42.503Z,99976.08
2018-07-31T13:17:13.722Z,99983.83
2018-07-31T13:19:44.780Z,99980.67
2018-07-31T13:22:15.682Z,99963.58
2018-07-31T13:24:47.409Z,99971.50
2018-07-31T13:27:18.650Z,99973.94
2018-07-31T13:29:51.033Z,99971.30
2018-07-31T13:32:22.412Z,99970.06
2018-07-31T13:34:53.608Z,99968.17
2018-07-31T13:37:24.745Z,99962.92
2018-07-31T13:39:55.756Z,99962.46
2018-07-31T13:42:26.626Z,99960.77
2018-07-31T13:44:58.295Z,99957.94
2018-07-31T13:47:29.550Z,99956.20
2018-07-31T13:50:00.634Z,99952.09
2018-07-31T13:52:31.586Z,99953.50
2018-07-31T13:55:02.609Z,99956.58
2018-07-31T13:57:33.651Z,99957.76
2018-07-31T14:00:05.558Z,99957.13
2018-07-31T14:02:36.596Z,99950.03
2018-07-31T14:05:07.672Z,99957.81
2018-07-31T14:07:39.263Z,99960.77
2018-07-31T14:10:10.838Z,99960.26
2018-07-31T14:12:42.455Z,99961.58
2018-07-31T14:15:13.570Z,99960.16
2018-07-31T14:17:44.835Z,99961.50
2018-07-31T14:20:15.306Z,99966.08
2018-07-31T14:22:46.656Z,99966.44
2018-07-31T14:25:17.724Z,99968.99
2018-07-31T14:27:49.315Z,99971.68
2018-07-31T14:30:20.460Z,99962.42
2018-07-31T14:32:51.685Z,99967.02
2018-07-31T14:35:24.531Z,99953.56
2018-07-31T14:37:55.627Z,99949.20
2018-07-31T14:40:26.706Z,99954.45
2018-07-31T14:42:57.885Z,99964.95
2018-07-31T14:45:28.375Z,99962.47
2018-07-31T14:47:59.574Z,99963.52
2018-07-31T14:50:30.632Z,99958.80
2018-07-31T14:53:01.767Z,99963.17
2018-07-31T14:55:32.733Z,99959.98
2018-07-31T14:58:03.684Z,99955.63
2018-07-31T15:00:34.726Z,99955.55
2018-07-31T15:03:06.212Z,99954.89
2018-07-31T15:05:37.421Z,99961.00
2018-07-31T15:08:09.538Z,99951.16
2018-07-31T15:10:40.633Z,99951.77
2018-07-31T15:13:11.614Z,99953.56
2018-07-31T15:15:43.527Z,99953.55
2018-07-31T15:18:15.052Z,99945.70
2018-07-31T15:20:46.574Z,99952.94
2018-07-31T15:23:17.709Z,99951.41
2018-07-31T15:25:49.582Z,99954.48
2018-07-31T15:28:23.746Z,99954.53
2018-07-31T15:30:55.232Z,99943.13
2018-07-31T15:33:27.275Z,99940.83
2018-07-31T15:35:59.713Z,99950.43
2018-07-31T15:38:31.639Z,99954.18
2018-07-31T15:41:04.672Z,99951.83
2018-07-31T15:43:37.709Z,99947.47
2018-07-31T15:46:09.582Z,99942.72
2018-07-31T15:48:41.077Z,99948.75
2018-07-31T15:51:13.377Z,99944.45
2018-07-31T15:53:45.521Z,99951.80
2018-07-31T15:56:17.888Z,99956.86
2018-07-31T15:58:50.248Z,99965.52
2018-07-31T16:01:21.749Z,99980.41
2018-07-31T16:03:53.458Z,99976.56
2018-07-31T16:06:25.638Z,99969.94
2018-07-31T16:08:57.303Z,99974.89
2018-07-31T16:11:28.770Z,99973.38
2018-07-31T16:14:07.245Z,99974.97
2018-07-31T16:16:39.059Z,99974.92
2018-07-31T16:19:10.401Z,99992.35
2018-07-31T16:21:42.344Z,99999.00
2018-07-31T16:24:14.503Z,100008.70
2018-07-31T16:26:55.335Z,100036.98
2018-07-31T16:29:26.738Z,100074.67
2018-07-31T16:31:58.414Z,100040.77
2018-07-31T16:34:29.514Z,100048.52
2018-07-31T16:37:00.561Z,100041.38
2018-07-31T16:39:31.491Z,100039.47
2018-07-31T16:42:02.472Z,100048.42
2018-07-31T16:44:33.440Z,100032.59
2018-07-31T16:47:04.725Z,100028.32
2018-07-31T16:49:35.541Z,100020.44
2018-07-31T16:52:06.550Z,100017.45
2018-07-31T16:54:37.492Z,100019.16
2018-07-31T16:57:08.556Z,100011.98
2018-07-31T16:59:39.479Z,100008.77
2018-07-31T17:02:10.518Z,99999.36
2018-07-31T17:04:41.481Z,100001.61
2018-07-31T17:07:12.472Z,99999.22
2018-07-31T17:09:43.452Z,100002.20
2018-07-31T17:12:14.545Z,99999.34
2018-07-31T17:14:45.550Z,99996.68
2018-07-31T17:17:16.554Z,100000.45
2018-07-31T17:19:47.508Z,100004.89
2018-07-31T17:22:18.501Z,99997.68
2018-07-31T17:24:49.581Z,100006.02
2018-07-31T17:27:20.583Z,100010.81
2018-07-31T17:29:51.567Z,100014.70
2018-07-31T17:32:22.561Z,100007.68
2018-07-31T17:34:53.518Z,100019.37
2018-07-31T17:37:24.616Z,100019.63
2018-07-31T17:39:55.591Z,100021.04
2018-07-31T17:42:26.536Z,100013.70
2018-07-31T17:44:57.517Z,100019.73
2018-07-31T17:47:28.580Z,100020.77
2018-07-31T17:49:59.528Z,100019.64
2018-07-31T17:52:30.493Z,100022.23
2018-07-31T17:55:01.581Z,100019.59
2018-07-31T17:57:32.571Z,100020.91
2018-07-31T18:00:03.592Z,100025.08
2018-07-31T18:02:34.577Z,100022.54
2018-07-31T18:05:05.535Z,100020.73
2018-07-31T18:07:36.521Z,100026.01
2018-07-31T18:10:08.561Z,100029.17
2018-07-31T18:12:39.608Z,100024.30
2018-07-31T18:15:11.828Z,100024.60
2018-07-31T18:17:42.613Z,100024.11
2018-07-31T18:20:13.560Z,100021.22
2018-07-31T18:22:44.511Z,100025.80
2018-07-31T18:25:15.518Z,100027.45
2018-07-31T18:27:46.518Z,100028.16
2018-07-31T18:30:17.570Z,100032.47
2018-07-31T18:32:48.517Z,100039.20
2018-07-31T18:35:19.526Z,100042.41
2018-07-31T18:37:50.598Z,100041.35
2018-07-31T18:40:21.560Z,100041.61
2018-07-31T18:42:52.582Z,100045.34
2018-07-31T18:45:23.512Z,100043.11
2018-07-31T18:47:54.497Z,100045.26
2018-07-31T18:50:25.557Z,100055.31
2018-07-31T18:52:56.580Z,100047.14
2018-07-31T18:55:27.818Z,100041.64
2018-07-31T18:57:58.308Z,100048.06
2018-07-31T19:00:29.435Z,100053.47
2018-07-31T19:03:00.530Z,100050.70
2018-07-31T19:05:31.478Z,100058.81
2018-07-31T19:08:02.484Z,100061.53
2018-07-31T19:10:33.615Z,100069.55
2018-07-31T19:13:04.510Z,100070.22
2018-07-31T19:15:35.518Z,100071.00
2018-07-31T19:18:06.577Z,100075.86
2018-07-31T19:20:37.496Z,100079.11
2018-07-31T19:23:08.541Z,100078.52
2018-07-31T19:25:39.480Z,100082.55
2018-07-31T19:28:10.570Z,100082.75
2018-07-31T19:30:41.576Z,100083.53
2018-07-31T19:33:12.526Z,100085.31
2018-07-31T19:35:43.573Z,100089.02
2018-07-31T19:38:15.201Z,100082.16
2018-07-31T19:40:46.546Z,100094.70
2018-07-31T19:43:17.496Z,100086.80
2018-07-31T19:45:48.496Z,100094.18
2018-07-31T19:48:19.509Z,100102.02
2018-07-31T19:50:50.491Z,100101.66
2018-07-31T19:53:21.513Z,100108.97
2018-07-31T19:55:52.528Z,100112.78
2018-07-31T19:58:23.537Z,100115.19
2018-07-31T20:00:55.235Z,100116.73
2018-07-31T20:03:26.553Z,100113.67
2018-07-31T20:05:57.982Z,100117.56
2018-07-31T20:08:29.254Z,100127.41
2018-07-31T20:11:00.374Z,100126.52
2018-07-31T20:13:31.500Z,100129.11
2018-07-31T20:16:02.465Z,100124.45
2018-07-31T20:18:33.535Z,100134.16
2018-07-31T20:21:04.682Z,100131.36
2018-07-31T20:23:35.509Z,100130.91
2018-07-31T20:26:06.538Z,100141.77
2018-07-31T20:28:37.483Z,100144.69
2018-07-31T20:31:08.494Z,100146.55
2018-07-31T20:33:39.496Z,100144.88
2018-07-31T20:36:10.466Z,100147.67
2018-07-31T20:38:41.492Z,100146.64
2018-07-31T20:41:12.573Z,100147.73
2018-07-31T20:43:43.501Z,100151.08
2018-07-31T20:46:14.492Z,100152.37
2018-07-31T20:48:45.497Z,100155.06
2018-07-31T20:51:16.501Z,100155.67
2018-07-31T20:53:47.497Z,100159.94
2018-07-31T20:56:18.540Z,100164.36
2018-07-31T20:58:49.481Z,100159.91
2018-07-31T21:01:20.490Z,100164.97
2018-07-31T21:03:51.533Z,100163.99
2018-07-31T21:06:22.477Z,100162.81
2018-07-31T21:08:53.477Z,100168.77
2018-07-31T21:11:24.480Z,100162.93
2018-07-31T21:13:55.480Z,100163.42
2018-07-31T21:16:26.501Z,100167.41
2018-07-31T21:18:57.493Z,100168.94
2018-07-31T21:21:28.478Z,100179.28
2018-07-31T21:23:59.457Z,100186.89
2018-07-31T21:26:30.476Z,100201.59
2018-07-31T21:29:01.493Z,100197.13
2018-07-31T21:31:32.573Z,100193.51
2018-07-31T21:34:03.518Z,100193.09
2018-07-31T21:36:34.470Z,100202.70
2018-07-31T21:39:09.199Z,100207.44
2018-07-31T21:41:40.519Z,100205.56
2018-07-31T21:44:11.837Z,100202.50
2018-07-31T21:46:42.325Z,100196.75
2018-07-31T21:49:15.377Z,100197.13
2018-07-31T21:51:46.490Z,100196.58
2018-07-31T21:54:17.505Z,100197.34
2018-07-31T21:56:48.497Z,100208.80
2018-07-31T21:59:19.480Z,100207.33
2018-07-31T22:01:50.492Z,100200.72
2018-07-31T22:04:21.476Z,100213.42
2018-07-31T22:06:52.453Z,100210.94
2018-07-31T22:09:28.618Z,100213.47
2018-07-31T22:11:59.895Z,100213.59
2018-07-31T22:14:31.717Z,100213.16
2018-07-31T22:17:02.633Z,100213.05
2018-07-31T22:19:33.493Z,100213.17
2018-07-31T22:22:04.512Z,100215.89
2018-07-31T22:24:35.556Z,100214.59
2018-07-31T22:27:06.552Z,100218.90
2018-07-31T22:29:37.524Z,100212.76
2018-07-31T22:32:08.506Z,100213.23
2018-07-31T22:34:39.533Z,100211.52
2018-07-31T22:37:10.508Z,100211.56
2018-07-31T22:39:41.489Z,100219.70
2018-07-31T22:42:12.510Z,100232.59
2018-07-31T22:44:43.497Z,100230.64
2018-07-31T22:47:14.524Z,100231.88
2018-07-31T22:49:45.588Z,100238.97
2018-07-31T22:52:16.568Z,100241.03
2018-07-31T22:54:47.540Z,100249.69
2018-07-31T22:57:18.515Z,100247.65
2018-07-31T22:59:49.528Z,100252.50
2018-07-31T23:02:20.497Z,100255.89
2018-07-31T23:04:51.513Z,100261.91
2018-07-31T23:07:22.516Z,100265.13
2018-07-31T23:09:58.422Z,100261.02
2018-07-31T23:12:29.495Z,100261.77
2018-07-31T23:15:02.015Z,100269.43
2018-07-31T23:17:33.458Z,100259.48
2018-07-31T23:20:06.014Z,100268.84
2018-07-31T23:22:51.683Z,100272.61
2018-07-31T23:25:22.555Z,100272.24
2018-07-31T23:27:53.562Z,100274.48
2018-07-31T23:30:24.551Z,100275.39
2018-07-31T23:32:55.487Z,100270.81
2018-07-31T23:35:26.539Z,100279.41
2018-07-31T23:37:57.472Z,100281.36
2018-07-31T23:40:28.478Z,100273.28
2018-07-31T23:42:59.465Z,100274.05
2018-07-31T23:45:30.485Z,100273.01
2018-07-31T23:48:01.483Z,100270.50
2018-07-31T23:50:32.521Z,100276.38
2018-07-31T23:53:03.513Z,100273.52
2018-07-31T23:55:34.480Z,100277.59
2018-07-31T23:58:05.473Z,100275.77
